sensor_id;sensor_type;location;lat;lon;timestamp;P1;durP1;ratioP1;P2;durP2;ratioP2
72373;SDS011;60349;64.132;-21.820;2023-04-15T00:01:25;1.58;;;0.20;;
72373;SDS011;60349;64.132;-21.820;2023-04-15T00:03:52;1.05;;;0.10;;
72373;SDS011;60349;64.132;-21.820;2023-04-15T00:06:18;1.02;;;0.10;;
72373;SDS011;60349;64.132;-21.820;2023-04-15T00:08:45;3.63;;;0.20;;
72373;SDS011;60349;64.132;-21.820;2023-04-15T00:11:11;1.80;;;0.10;;
72373;SDS011;60349;64.132;-21.820;2023-04-15T00:13:38;1.23;;;0.10;;
72373;SDS011;60349;64.132;-21.820;2023-04-15T00:16:04;1.30;;;0.10;;
72373;SDS011;60349;64.132;-21.820;2023-04-15T00:18:31;2.47;;;0.10;;
72373;SDS011;60349;64.132;-21.820;2023-04-15T00:20:57;1.13;;;0.10;;
72373;SDS011;60349;64.132;-21.820;2023-04-15T00:23:24;1.48;;;0.10;;
72373;SDS011;60349;64.132;-21.820;2023-04-15T00:25:50;1.48;;;0.10;;
72373;SDS011;60349;64.132;-21.820;2023-04-15T00:28:17;3.45;;;0.10;;
72373;SDS011;60349;64.132;-21.820;2023-04-15T00:30:43;1.85;;;0.10;;
72373;SDS011;60349;64.132;-21.820;2023-04-15T00:33:09;1.25;;;0.10;;
72373;SDS011;60349;64.132;-21.820;2023-04-15T00:35:35;1.00;;;0.10;;
72373;SDS011;60349;64.132;-21.820;2023-04-15T00:38:02;0.88;;;0.10;;
72373;SDS011;60349;64.132;-21.820;2023-04-15T00:40:29;2.88;;;0.10;;
72373;SDS011;60349;64.132;-21.820;2023-04-15T00:42:55;1.70;;;0.20;;
72373;SDS011;60349;64.132;-21.820;2023-04-15T00:45:21;1.27;;;0.20;;
72373;SDS011;60349;64.132;-21.820;2023-04-15T00:47:48;1.13;;;0.20;;
72373;SDS011;60349;64.132;-21.820;2023-04-15T00:50:14;3.83;;;0.55;;
72373;SDS011;60349;64.132;-21.820;2023-04-15T00:52:40;6.55;;;0.30;;
72373;SDS011;60349;64.132;-21.820;2023-04-15T00:55:06;4.00;;;0.30;;
72373;SDS011;60349;64.132;-21.820;2023-04-15T00:57:33;2.53;;;0.52;;
72373;SDS011;60349;64.132;-21.820;2023-04-15T01:00:00;3.38;;;0.63;;
72373;SDS011;60349;64.132;-21.820;2023-04-15T01:02:27;2.53;;;0.40;;
72373;SDS011;60349;64.132;-21.820;2023-04-15T01:04:53;5.35;;;0.30;;
72373;SDS011;60349;64.132;-21.820;2023-04-15T01:07:19;1.40;;;0.30;;
72373;SDS011;60349;64.132;-21.820;2023-04-15T01:09:48;2.97;;;0.28;;
72373;SDS011;60349;64.132;-21.820;2023-04-15T01:12:14;1.48;;;0.28;;
72373;SDS011;60349;64.132;-21.820;2023-04-15T01:14:41;2.20;;;0.40;;
72373;SDS011;60349;64.132;-21.820;2023-04-15T01:17:07;3.17;;;0.73;;
72373;SDS011;60349;64.132;-21.820;2023-04-15T01:19:35;3.08;;;0.60;;
72373;SDS011;60349;64.132;-21.820;2023-04-15T01:22:01;3.55;;;1.08;;
72373;SDS011;60349;64.132;-21.820;2023-04-15T01:24:27;4.60;;;1.00;;
72373;SDS011;60349;64.132;-21.820;2023-04-15T01:26:55;4.38;;;0.73;;
72373;SDS011;60349;64.132;-21.820;2023-04-15T01:29:21;1.90;;;0.55;;
72373;SDS011;60349;64.132;-21.820;2023-04-15T01:31:51;2.50;;;0.50;;
72373;SDS011;60349;64.132;-21.820;2023-04-15T01:34:17;2.50;;;0.60;;
72373;SDS011;60349;64.132;-21.820;2023-04-15T01:36:44;3.08;;;0.30;;
72373;SDS011;60349;64.132;-21.820;2023-04-15T01:39:10;1.90;;;0.65;;
72373;SDS011;60349;64.132;-21.820;2023-04-15T01:41:36;2.42;;;0.30;;
72373;SDS011;60349;64.132;-21.820;2023-04-15T01:44:03;2.67;;;0.45;;
72373;SDS011;60349;64.132;-21.820;2023-04-15T01:46:29;6.15;;;2.28;;
72373;SDS011;60349;64.132;-21.820;2023-04-15T01:48:56;15.25;;;3.08;;
72373;SDS011;60349;64.132;-21.820;2023-04-15T01:51:22;9.50;;;2.85;;
72373;SDS011;60349;64.132;-21.820;2023-04-15T01:53:48;6.43;;;2.50;;
72373;SDS011;60349;64.132;-21.820;2023-04-15T01:56:15;4.85;;;1.50;;
72373;SDS011;60349;64.132;-21.820;2023-04-15T01:58:41;5.85;;;1.50;;
72373;SDS011;60349;64.132;-21.820;2023-04-15T02:01:07;5.18;;;0.95;;
72373;SDS011;60349;64.132;-21.820;2023-04-15T02:03:34;4.47;;;1.10;;
72373;SDS011;60349;64.132;-21.820;2023-04-15T02:06:01;3.17;;;1.02;;
72373;SDS011;60349;64.132;-21.820;2023-04-15T02:08:28;1.77;;;0.52;;
72373;SDS011;60349;64.132;-21.820;2023-04-15T02:10:54;2.67;;;0.30;;
72373;SDS011;60349;64.132;-21.820;2023-04-15T02:13:20;2.50;;;0.50;;
72373;SDS011;60349;64.132;-21.820;2023-04-15T02:15:47;2.35;;;0.40;;
72373;SDS011;60349;64.132;-21.820;2023-04-15T02:18:14;1.58;;;0.22;;
72373;SDS011;60349;64.132;-21.820;2023-04-15T02:20:41;3.45;;;0.30;;
72373;SDS011;60349;64.132;-21.820;2023-04-15T02:23:11;1.45;;;0.30;;
72373;SDS011;60349;64.132;-21.820;2023-04-15T02:25:37;1.75;;;0.20;;
72373;SDS011;60349;64.132;-21.820;2023-04-15T02:28:04;2.40;;;0.57;;
72373;SDS011;60349;64.132;-21.820;2023-04-15T02:30:31;3.65;;;0.95;;
72373;SDS011;60349;64.132;-21.820;2023-04-15T02:32:57;2.55;;;0.57;;
72373;SDS011;60349;64.132;-21.820;2023-04-15T02:35:23;2.05;;;0.40;;
72373;SDS011;60349;64.132;-21.820;2023-04-15T02:37:49;1.92;;;0.40;;
72373;SDS011;60349;64.132;-21.820;2023-04-15T02:40:16;1.70;;;0.40;;
72373;SDS011;60349;64.132;-21.820;2023-04-15T02:42:43;2.22;;;0.30;;
72373;SDS011;60349;64.132;-21.820;2023-04-15T02:45:09;2.15;;;0.40;;
72373;SDS011;60349;64.132;-21.820;2023-04-15T02:47:38;1.40;;;0.32;;
72373;SDS011;60349;64.132;-21.820;2023-04-15T02:50:09;1.77;;;0.20;;
72373;SDS011;60349;64.132;-21.820;2023-04-15T02:52:37;0.90;;;0.20;;
72373;SDS011;60349;64.132;-21.820;2023-04-15T02:55:04;1.60;;;0.10;;
72373;SDS011;60349;64.132;-21.820;2023-04-15T02:57:30;2.33;;;0.10;;
72373;SDS011;60349;64.132;-21.820;2023-04-15T02:59:56;2.88;;;0.10;;
72373;SDS011;60349;64.132;-21.820;2023-04-15T03:02:23;2.45;;;0.10;;
72373;SDS011;60349;64.132;-21.820;2023-04-15T03:04:49;1.27;;;0.43;;
72373;SDS011;60349;64.132;-21.820;2023-04-15T03:07:16;0.88;;;0.03;;
72373;SDS011;60349;64.132;-21.820;2023-04-15T03:09:42;0.90;;;0.10;;
72373;SDS011;60349;64.132;-21.820;2023-04-15T03:12:08;0.60;;;0.00;;
72373;SDS011;60349;64.132;-21.820;2023-04-15T03:14:35;0.40;;;0.00;;
72373;SDS011;60349;64.132;-21.820;2023-04-15T03:17:01;1.30;;;0.00;;
72373;SDS011;60349;64.132;-21.820;2023-04-15T03:19:27;0.63;;;0.10;;
72373;SDS011;60349;64.132;-21.820;2023-04-15T03:21:53;0.70;;;0.00;;
72373;SDS011;60349;64.132;-21.820;2023-04-15T03:24:19;0.47;;;0.00;;
72373;SDS011;60349;64.132;-21.820;2023-04-15T03:26:45;1.88;;;0.00;;
72373;SDS011;60349;64.132;-21.820;2023-04-15T03:29:11;0.28;;;0.00;;
72373;SDS011;60349;64.132;-21.820;2023-04-15T03:31:37;0.55;;;0.00;;
72373;SDS011;60349;64.132;-21.820;2023-04-15T03:34:03;0.38;;;0.00;;
72373;SDS011;60349;64.132;-21.820;2023-04-15T03:36:29;0.20;;;0.00;;
72373;SDS011;60349;64.132;-21.820;2023-04-15T03:38:57;0.40;;;0.00;;
72373;SDS011;60349;64.132;-21.820;2023-04-15T03:41:23;0.35;;;0.00;;
72373;SDS011;60349;64.132;-21.820;2023-04-15T03:43:50;3.03;;;0.08;;
72373;SDS011;60349;64.132;-21.820;2023-04-15T03:46:17;0.30;;;0.00;;
72373;SDS011;60349;64.132;-21.820;2023-04-15T03:48:43;0.40;;;0.00;;
72373;SDS011;60349;64.132;-21.820;2023-04-15T03:51:09;0.30;;;0.00;;
72373;SDS011;60349;64.132;-21.820;2023-04-15T03:53:36;0.10;;;0.00;;
72373;SDS011;60349;64.132;-21.820;2023-04-15T03:56:02;1.02;;;0.00;;
72373;SDS011;60349;64.132;-21.820;2023-04-15T03:58:29;0.20;;;0.00;;
72373;SDS011;60349;64.132;-21.820;2023-04-15T04:00:55;1.65;;;0.00;;
72373;SDS011;60349;64.132;-21.820;2023-04-15T04:03:21;0.20;;;0.00;;
72373;SDS011;60349;64.132;-21.820;2023-04-15T04:05:47;0.28;;;0.00;;
72373;SDS011;60349;64.132;-21.820;2023-04-15T04:08:13;0.20;;;0.00;;
72373;SDS011;60349;64.132;-21.820;2023-04-15T04:10:40;0.50;;;0.00;;
72373;SDS011;60349;64.132;-21.820;2023-04-15T04:13:07;0.32;;;0.00;;
72373;SDS011;60349;64.132;-21.820;2023-04-15T04:15:33;0.28;;;0.00;;
72373;SDS011;60349;64.132;-21.820;2023-04-15T04:17:59;0.22;;;0.00;;
72373;SDS011;60349;64.132;-21.820;2023-04-15T04:20:25;0.90;;;0.00;;
72373;SDS011;60349;64.132;-21.820;2023-04-15T04:22:51;0.50;;;0.00;;
72373;SDS011;60349;64.132;-21.820;2023-04-15T04:25:18;0.63;;;0.00;;
72373;SDS011;60349;64.132;-21.820;2023-04-15T04:27:44;1.00;;;0.10;;
72373;SDS011;60349;64.132;-21.820;2023-04-15T04:30:10;0.35;;;0.00;;
72373;SDS011;60349;64.132;-21.820;2023-04-15T04:32:36;0.30;;;0.00;;
72373;SDS011;60349;64.132;-21.820;2023-04-15T04:35:03;0.30;;;0.00;;
72373;SDS011;60349;64.132;-21.820;2023-04-15T04:37:29;0.52;;;0.00;;
72373;SDS011;60349;64.132;-21.820;2023-04-15T04:39:55;0.88;;;0.08;;
72373;SDS011;60349;64.132;-21.820;2023-04-15T04:42:21;0.30;;;0.00;;
72373;SDS011;60349;64.132;-21.820;2023-04-15T04:44:47;0.50;;;0.00;;
72373;SDS011;60349;64.132;-21.820;2023-04-15T04:47:14;1.13;;;0.00;;
72373;SDS011;60349;64.132;-21.820;2023-04-15T04:49:40;0.50;;;0.00;;
72373;SDS011;60349;64.132;-21.820;2023-04-15T04:52:06;0.50;;;0.00;;
72373;SDS011;60349;64.132;-21.820;2023-04-15T04:54:32;0.40;;;0.00;;
72373;SDS011;60349;64.132;-21.820;2023-04-15T04:56:58;0.30;;;0.00;;
72373;SDS011;60349;64.132;-21.820;2023-04-15T04:59:25;0.30;;;0.00;;
72373;SDS011;60349;64.132;-21.820;2023-04-15T05:01:52;0.30;;;0.00;;
72373;SDS011;60349;64.132;-21.820;2023-04-15T05:04:18;0.17;;;0.00;;
72373;SDS011;60349;64.132;-21.820;2023-04-15T05:06:44;0.20;;;0.00;;
72373;SDS011;60349;64.132;-21.820;2023-04-15T05:09:10;0.30;;;0.00;;
72373;SDS011;60349;64.132;-21.820;2023-04-15T05:11:36;0.30;;;0.00;;
72373;SDS011;60349;64.132;-21.820;2023-04-15T05:14:02;0.20;;;0.00;;
72373;SDS011;60349;64.132;-21.820;2023-04-15T05:16:29;0.30;;;0.00;;
72373;SDS011;60349;64.132;-21.820;2023-04-15T05:18:55;2.85;;;0.00;;
72373;SDS011;60349;64.132;-21.820;2023-04-15T05:21:21;0.10;;;0.00;;
72373;SDS011;60349;64.132;-21.820;2023-04-15T05:23:47;0.13;;;0.00;;
72373;SDS011;60349;64.132;-21.820;2023-04-15T05:26:13;0.10;;;0.00;;
72373;SDS011;60349;64.132;-21.820;2023-04-15T05:28:39;0.10;;;0.00;;
72373;SDS011;60349;64.132;-21.820;2023-04-15T05:31:05;0.25;;;0.00;;
72373;SDS011;60349;64.132;-21.820;2023-04-15T05:33:31;0.08;;;0.00;;
72373;SDS011;60349;64.132;-21.820;2023-04-15T05:35:58;0.20;;;0.00;;
72373;SDS011;60349;64.132;-21.820;2023-04-15T05:38:24;0.13;;;0.00;;
72373;SDS011;60349;64.132;-21.820;2023-04-15T05:40:50;0.00;;;0.00;;
72373;SDS011;60349;64.132;-21.820;2023-04-15T05:43:16;0.03;;;0.00;;
72373;SDS011;60349;64.132;-21.820;2023-04-15T05:45:42;0.00;;;0.00;;
72373;SDS011;60349;64.132;-21.820;2023-04-15T05:48:08;0.60;;;0.00;;
72373;SDS011;60349;64.132;-21.820;2023-04-15T05:50:34;0.55;;;0.00;;
72373;SDS011;60349;64.132;-21.820;2023-04-15T05:53:00;0.20;;;0.00;;
72373;SDS011;60349;64.132;-21.820;2023-04-15T05:55:27;0.00;;;0.00;;
72373;SDS011;60349;64.132;-21.820;2023-04-15T05:57:53;0.55;;;0.00;;
72373;SDS011;60349;64.132;-21.820;2023-04-15T06:00:19;0.10;;;0.00;;
72373;SDS011;60349;64.132;-21.820;2023-04-15T06:02:45;0.00;;;0.00;;
72373;SDS011;60349;64.132;-21.820;2023-04-15T06:05:11;0.10;;;0.00;;
72373;SDS011;60349;64.132;-21.820;2023-04-15T06:07:38;0.10;;;0.00;;
72373;SDS011;60349;64.132;-21.820;2023-04-15T06:10:04;0.00;;;0.00;;
72373;SDS011;60349;64.132;-21.820;2023-04-15T06:12:31;0.00;;;0.00;;
72373;SDS011;60349;64.132;-21.820;2023-04-15T06:14:57;0.17;;;0.00;;
72373;SDS011;60349;64.132;-21.820;2023-04-15T06:17:23;1.00;;;0.00;;
72373;SDS011;60349;64.132;-21.820;2023-04-15T06:19:50;0.00;;;0.00;;
72373;SDS011;60349;64.132;-21.820;2023-04-15T06:22:20;1.10;;;0.00;;
72373;SDS011;60349;64.132;-21.820;2023-04-15T06:24:47;0.90;;;0.00;;
72373;SDS011;60349;64.132;-21.820;2023-04-15T06:27:14;0.10;;;0.00;;
72373;SDS011;60349;64.132;-21.820;2023-04-15T06:29:41;0.00;;;0.00;;
72373;SDS011;60349;64.132;-21.820;2023-04-15T06:32:07;0.13;;;0.00;;
72373;SDS011;60349;64.132;-21.820;2023-04-15T06:34:33;0.30;;;0.00;;
72373;SDS011;60349;64.132;-21.820;2023-04-15T06:36:59;2.58;;;0.00;;
72373;SDS011;60349;64.132;-21.820;2023-04-15T06:39:25;0.00;;;0.00;;
72373;SDS011;60349;64.132;-21.820;2023-04-15T06:41:51;0.05;;;0.00;;
72373;SDS011;60349;64.132;-21.820;2023-04-15T06:44:18;0.38;;;0.00;;
72373;SDS011;60349;64.132;-21.820;2023-04-15T06:46:44;0.10;;;0.00;;
72373;SDS011;60349;64.132;-21.820;2023-04-15T06:49:10;0.20;;;0.00;;
72373;SDS011;60349;64.132;-21.820;2023-04-15T06:51:36;0.10;;;0.00;;
72373;SDS011;60349;64.132;-21.820;2023-04-15T06:54:03;0.08;;;0.00;;
72373;SDS011;60349;64.132;-21.820;2023-04-15T06:56:33;0.00;;;0.00;;
72373;SDS011;60349;64.132;-21.820;2023-04-15T06:58:59;0.28;;;0.00;;
72373;SDS011;60349;64.132;-21.820;2023-04-15T07:01:26;0.38;;;0.00;;
72373;SDS011;60349;64.132;-21.820;2023-04-15T07:03:52;1.95;;;0.00;;
72373;SDS011;60349;64.132;-21.820;2023-04-15T07:06:18;0.10;;;0.00;;
72373;SDS011;60349;64.132;-21.820;2023-04-15T07:08:45;0.10;;;0.00;;
72373;SDS011;60349;64.132;-21.820;2023-04-15T07:11:12;0.00;;;0.00;;
72373;SDS011;60349;64.132;-21.820;2023-04-15T07:13:39;0.00;;;0.00;;
72373;SDS011;60349;64.132;-21.820;2023-04-15T07:16:05;0.10;;;0.00;;
72373;SDS011;60349;64.132;-21.820;2023-04-15T07:18:31;0.17;;;0.00;;
72373;SDS011;60349;64.132;-21.820;2023-04-15T07:20:57;0.10;;;0.00;;
72373;SDS011;60349;64.132;-21.820;2023-04-15T07:23:23;0.00;;;0.00;;
72373;SDS011;60349;64.132;-21.820;2023-04-15T07:25:49;0.08;;;0.00;;
72373;SDS011;60349;64.132;-21.820;2023-04-15T07:28:16;1.25;;;0.00;;
72373;SDS011;60349;64.132;-21.820;2023-04-15T07:30:42;0.10;;;0.00;;
72373;SDS011;60349;64.132;-21.820;2023-04-15T07:33:08;0.10;;;0.00;;
72373;SDS011;60349;64.132;-21.820;2023-04-15T07:35:34;0.08;;;0.00;;
72373;SDS011;60349;64.132;-21.820;2023-04-15T07:38:01;0.00;;;0.00;;
72373;SDS011;60349;64.132;-21.820;2023-04-15T07:40:27;0.10;;;0.00;;
72373;SDS011;60349;64.132;-21.820;2023-04-15T07:42:54;1.35;;;0.00;;
72373;SDS011;60349;64.132;-21.820;2023-04-15T07:45:22;1.55;;;0.00;;
72373;SDS011;60349;64.132;-21.820;2023-04-15T07:47:48;1.67;;;0.00;;
72373;SDS011;60349;64.132;-21.820;2023-04-15T07:50:15;0.30;;;0.00;;
72373;SDS011;60349;64.132;-21.820;2023-04-15T07:52:41;0.10;;;0.00;;
72373;SDS011;60349;64.132;-21.820;2023-04-15T07:55:08;0.55;;;0.00;;
72373;SDS011;60349;64.132;-21.820;2023-04-15T07:57:35;0.08;;;0.00;;
72373;SDS011;60349;64.132;-21.820;2023-04-15T08:00:01;1.40;;;0.00;;
72373;SDS011;60349;64.132;-21.820;2023-04-15T08:02:29;0.05;;;0.00;;
72373;SDS011;60349;64.132;-21.820;2023-04-15T08:04:55;1.27;;;0.00;;
72373;SDS011;60349;64.132;-21.820;2023-04-15T08:07:22;1.95;;;0.00;;
72373;SDS011;60349;64.132;-21.820;2023-04-15T08:09:48;0.00;;;0.00;;
72373;SDS011;60349;64.132;-21.820;2023-04-15T08:12:14;0.00;;;0.00;;
72373;SDS011;60349;64.132;-21.820;2023-04-15T08:14:40;0.57;;;0.00;;
72373;SDS011;60349;64.132;-21.820;2023-04-15T08:17:06;0.00;;;0.00;;
72373;SDS011;60349;64.132;-21.820;2023-04-15T08:19:33;0.15;;;0.00;;
72373;SDS011;60349;64.132;-21.820;2023-04-15T08:21:59;4.25;;;0.00;;
72373;SDS011;60349;64.132;-21.820;2023-04-15T08:24:25;0.30;;;0.00;;
72373;SDS011;60349;64.132;-21.820;2023-04-15T08:26:51;0.10;;;0.00;;
72373;SDS011;60349;64.132;-21.820;2023-04-15T08:29:18;0.22;;;0.00;;
72373;SDS011;60349;64.132;-21.820;2023-04-15T08:31:44;0.55;;;0.00;;
72373;SDS011;60349;64.132;-21.820;2023-04-15T08:34:10;0.90;;;0.00;;
72373;SDS011;60349;64.132;-21.820;2023-04-15T08:36:37;0.55;;;0.00;;
72373;SDS011;60349;64.132;-21.820;2023-04-15T08:39:03;0.20;;;0.00;;
72373;SDS011;60349;64.132;-21.820;2023-04-15T08:41:33;1.20;;;0.00;;
72373;SDS011;60349;64.132;-21.820;2023-04-15T08:44:02;0.00;;;0.00;;
72373;SDS011;60349;64.132;-21.820;2023-04-15T08:46:32;0.10;;;0.00;;
72373;SDS011;60349;64.132;-21.820;2023-04-15T08:49:04;0.30;;;0.00;;
72373;SDS011;60349;64.132;-21.820;2023-04-15T08:51:31;1.27;;;0.00;;
72373;SDS011;60349;64.132;-21.820;2023-04-15T08:53:58;0.00;;;0.00;;
72373;SDS011;60349;64.132;-21.820;2023-04-15T08:56:24;0.00;;;0.00;;
72373;SDS011;60349;64.132;-21.820;2023-04-15T08:58:51;0.00;;;0.00;;
72373;SDS011;60349;64.132;-21.820;2023-04-15T09:01:17;0.17;;;0.00;;
72373;SDS011;60349;64.132;-21.820;2023-04-15T09:03:43;0.32;;;0.00;;
72373;SDS011;60349;64.132;-21.820;2023-04-15T09:06:10;0.08;;;0.00;;
72373;SDS011;60349;64.132;-21.820;2023-04-15T09:08:36;0.40;;;0.00;;
72373;SDS011;60349;64.132;-21.820;2023-04-15T09:11:03;0.05;;;0.00;;
72373;SDS011;60349;64.132;-21.820;2023-04-15T09:13:29;1.05;;;0.00;;
72373;SDS011;60349;64.132;-21.820;2023-04-15T09:15:55;0.40;;;0.00;;
72373;SDS011;60349;64.132;-21.820;2023-04-15T09:18:35;0.52;;;0.00;;
72373;SDS011;60349;64.132;-21.820;2023-04-15T09:23:32;1.88;;;0.00;;
72373;SDS011;60349;64.132;-21.820;2023-04-15T09:25:59;0.35;;;0.00;;
72373;SDS011;60349;64.132;-21.820;2023-04-15T09:28:25;1.75;;;0.00;;
72373;SDS011;60349;64.132;-21.820;2023-04-15T09:30:54;0.00;;;0.00;;
72373;SDS011;60349;64.132;-21.820;2023-04-15T09:33:21;0.20;;;0.00;;
72373;SDS011;60349;64.132;-21.820;2023-04-15T09:35:56;0.30;;;0.00;;
72373;SDS011;60349;64.132;-21.820;2023-04-15T09:38:23;0.52;;;0.00;;
72373;SDS011;60349;64.132;-21.820;2023-04-15T09:40:49;0.40;;;0.00;;
72373;SDS011;60349;64.132;-21.820;2023-04-15T09:43:15;0.28;;;0.00;;
72373;SDS011;60349;64.132;-21.820;2023-04-15T09:45:49;0.52;;;0.00;;
72373;SDS011;60349;64.132;-21.820;2023-04-15T09:50:41;0.08;;;0.00;;
72373;SDS011;60349;64.132;-21.820;2023-04-15T09:53:08;1.02;;;0.00;;
72373;SDS011;60349;64.132;-21.820;2023-04-15T09:55:36;0.10;;;0.00;;
72373;SDS011;60349;64.132;-21.820;2023-04-15T09:58:07;1.17;;;0.00;;
72373;SDS011;60349;64.132;-21.820;2023-04-15T10:00:34;0.38;;;0.00;;
72373;SDS011;60349;64.132;-21.820;2023-04-15T10:03:00;0.52;;;0.00;;
72373;SDS011;60349;64.132;-21.820;2023-04-15T10:05:27;1.08;;;0.00;;
72373;SDS011;60349;64.132;-21.820;2023-04-15T10:07:53;0.73;;;0.00;;
72373;SDS011;60349;64.132;-21.820;2023-04-15T10:10:20;0.30;;;0.00;;
72373;SDS011;60349;64.132;-21.820;2023-04-15T10:12:47;0.77;;;0.00;;
72373;SDS011;60349;64.132;-21.820;2023-04-15T10:15:15;0.17;;;0.00;;
72373;SDS011;60349;64.132;-21.820;2023-04-15T10:17:44;0.47;;;0.00;;
72373;SDS011;60349;64.132;-21.820;2023-04-15T10:20:11;1.48;;;0.00;;
72373;SDS011;60349;64.132;-21.820;2023-04-15T10:22:38;1.95;;;0.00;;
72373;SDS011;60349;64.132;-21.820;2023-04-15T10:25:05;0.85;;;0.00;;
72373;SDS011;60349;64.132;-21.820;2023-04-15T10:27:32;0.30;;;0.00;;
72373;SDS011;60349;64.132;-21.820;2023-04-15T10:29:59;0.10;;;0.00;;
72373;SDS011;60349;64.132;-21.820;2023-04-15T10:32:27;0.73;;;0.00;;
72373;SDS011;60349;64.132;-21.820;2023-04-15T10:34:54;1.20;;;0.00;;
72373;SDS011;60349;64.132;-21.820;2023-04-15T10:37:21;0.52;;;0.00;;
72373;SDS011;60349;64.132;-21.820;2023-04-15T10:39:48;1.33;;;0.00;;
72373;SDS011;60349;64.132;-21.820;2023-04-15T10:42:15;0.30;;;0.00;;
72373;SDS011;60349;64.132;-21.820;2023-04-15T10:44:43;1.38;;;0.00;;
72373;SDS011;60349;64.132;-21.820;2023-04-15T10:47:13;0.45;;;0.00;;
72373;SDS011;60349;64.132;-21.820;2023-04-15T10:49:56;0.30;;;0.00;;
72373;SDS011;60349;64.132;-21.820;2023-04-15T10:52:23;3.78;;;0.00;;
72373;SDS011;60349;64.132;-21.820;2023-04-15T10:54:50;0.20;;;0.00;;
72373;SDS011;60349;64.132;-21.820;2023-04-15T10:57:27;0.30;;;0.00;;
72373;SDS011;60349;64.132;-21.820;2023-04-15T11:00:00;2.78;;;0.00;;
72373;SDS011;60349;64.132;-21.820;2023-04-15T11:02:42;0.50;;;0.00;;
72373;SDS011;60349;64.132;-21.820;2023-04-15T11:05:09;0.93;;;0.00;;
72373;SDS011;60349;64.132;-21.820;2023-04-15T11:10:03;1.63;;;0.00;;
72373;SDS011;60349;64.132;-21.820;2023-04-15T11:12:33;1.10;;;0.08;;
72373;SDS011;60349;64.132;-21.820;2023-04-15T11:15:23;0.55;;;0.00;;
72373;SDS011;60349;64.132;-21.820;2023-04-15T11:17:46;1.65;;;0.00;;
72373;SDS011;60349;64.132;-21.820;2023-04-15T11:20:15;2.78;;;0.10;;
72373;SDS011;60349;64.132;-21.820;2023-04-15T11:22:49;3.67;;;0.80;;
72373;SDS011;60349;64.132;-21.820;2023-04-15T11:25:21;5.03;;;0.98;;
72373;SDS011;60349;64.132;-21.820;2023-04-15T11:27:48;5.30;;;1.45;;
72373;SDS011;60349;64.132;-21.820;2023-04-15T11:30:21;4.20;;;1.00;;
72373;SDS011;60349;64.132;-21.820;2023-04-15T11:32:48;6.63;;;1.13;;
72373;SDS011;60349;64.132;-21.820;2023-04-15T11:35:15;3.75;;;1.00;;
72373;SDS011;60349;64.132;-21.820;2023-04-15T11:37:42;3.25;;;0.70;;
72373;SDS011;60349;64.132;-21.820;2023-04-15T11:40:08;3.10;;;0.73;;
72373;SDS011;60349;64.132;-21.820;2023-04-15T11:42:35;4.50;;;0.50;;
72373;SDS011;60349;64.132;-21.820;2023-04-15T11:45:11;1.95;;;0.50;;
72373;SDS011;60349;64.132;-21.820;2023-04-15T11:47:38;3.10;;;0.50;;
72373;SDS011;60349;64.132;-21.820;2023-04-15T11:52:41;1.48;;;0.20;;
72373;SDS011;60349;64.132;-21.820;2023-04-15T11:55:17;1.83;;;0.28;;
72373;SDS011;60349;64.132;-21.820;2023-04-15T11:57:43;4.20;;;0.43;;
72373;SDS011;60349;64.132;-21.820;2023-04-15T12:00:09;2.33;;;0.20;;
72373;SDS011;60349;64.132;-21.820;2023-04-15T12:02:35;2.47;;;0.10;;
72373;SDS011;60349;64.132;-21.820;2023-04-15T12:05:02;1.38;;;0.13;;
72373;SDS011;60349;64.132;-21.820;2023-04-15T12:07:29;1.00;;;0.13;;
72373;SDS011;60349;64.132;-21.820;2023-04-15T12:09:55;6.35;;;0.10;;
72373;SDS011;60349;64.132;-21.820;2023-04-15T12:12:25;2.83;;;0.20;;
72373;SDS011;60349;64.132;-21.820;2023-04-15T12:17:44;2.10;;;0.10;;
72373;SDS011;60349;64.132;-21.820;2023-04-15T12:20:10;1.88;;;0.20;;
72373;SDS011;60349;64.132;-21.820;2023-04-15T12:22:36;3.20;;;0.10;;
72373;SDS011;60349;64.132;-21.820;2023-04-15T12:25:03;2.38;;;0.10;;
72373;SDS011;60349;64.132;-21.820;2023-04-15T12:27:30;2.00;;;0.10;;
72373;SDS011;60349;64.132;-21.820;2023-04-15T12:30:05;1.92;;;0.00;;
72373;SDS011;60349;64.132;-21.820;2023-04-15T12:32:34;0.70;;;0.00;;
72373;SDS011;60349;64.132;-21.820;2023-04-15T12:35:01;3.08;;;0.05;;
72373;SDS011;60349;64.132;-21.820;2023-04-15T12:37:27;1.50;;;0.00;;
72373;SDS011;60349;64.132;-21.820;2023-04-15T12:39:53;0.90;;;0.10;;
72373;SDS011;60349;64.132;-21.820;2023-04-15T12:42:19;3.25;;;0.10;;
72373;SDS011;60349;64.132;-21.820;2023-04-15T12:44:46;3.50;;;0.00;;
72373;SDS011;60349;64.132;-21.820;2023-04-15T12:47:12;2.88;;;0.13;;
72373;SDS011;60349;64.132;-21.820;2023-04-15T12:49:39;1.75;;;0.10;;
72373;SDS011;60349;64.132;-21.820;2023-04-15T12:52:05;1.85;;;0.47;;
72373;SDS011;60349;64.132;-21.820;2023-04-15T12:54:31;3.10;;;0.10;;
72373;SDS011;60349;64.132;-21.820;2023-04-15T12:56:58;0.75;;;0.10;;
72373;SDS011;60349;64.132;-21.820;2023-04-15T12:59:25;2.83;;;0.10;;
72373;SDS011;60349;64.132;-21.820;2023-04-15T13:01:51;1.30;;;0.00;;
72373;SDS011;60349;64.132;-21.820;2023-04-15T13:04:18;1.02;;;0.10;;
72373;SDS011;60349;64.132;-21.820;2023-04-15T13:06:44;2.00;;;0.00;;
72373;SDS011;60349;64.132;-21.820;2023-04-15T13:09:12;0.60;;;0.05;;
72373;SDS011;60349;64.132;-21.820;2023-04-15T13:11:39;4.32;;;0.08;;
72373;SDS011;60349;64.132;-21.820;2023-04-15T13:14:06;0.82;;;0.10;;
72373;SDS011;60349;64.132;-21.820;2023-04-15T13:16:32;1.40;;;0.10;;
72373;SDS011;60349;64.132;-21.820;2023-04-15T13:18:59;2.85;;;0.10;;
72373;SDS011;60349;64.132;-21.820;2023-04-15T13:21:26;1.58;;;0.10;;
72373;SDS011;60349;64.132;-21.820;2023-04-15T13:23:52;4.18;;;0.00;;
72373;SDS011;60349;64.132;-21.820;2023-04-15T13:26:18;2.20;;;0.10;;
72373;SDS011;60349;64.132;-21.820;2023-04-15T13:28:45;0.70;;;0.05;;
72373;SDS011;60349;64.132;-21.820;2023-04-15T13:31:11;0.50;;;0.00;;
72373;SDS011;60349;64.132;-21.820;2023-04-15T13:33:37;3.08;;;0.10;;
72373;SDS011;60349;64.132;-21.820;2023-04-15T13:36:03;0.75;;;0.10;;
72373;SDS011;60349;64.132;-21.820;2023-04-15T13:38:29;2.38;;;0.10;;
72373;SDS011;60349;64.132;-21.820;2023-04-15T13:40:55;2.38;;;0.10;;
72373;SDS011;60349;64.132;-21.820;2023-04-15T13:43:22;1.83;;;0.30;;
72373;SDS011;60349;64.132;-21.820;2023-04-15T13:45:48;2.15;;;0.20;;
72373;SDS011;60349;64.132;-21.820;2023-04-15T13:48:14;3.08;;;0.10;;
72373;SDS011;60349;64.132;-21.820;2023-04-15T13:50:40;5.97;;;0.00;;
72373;SDS011;60349;64.132;-21.820;2023-04-15T13:53:09;5.00;;;0.10;;
72373;SDS011;60349;64.132;-21.820;2023-04-15T13:55:35;4.15;;;0.10;;
72373;SDS011;60349;64.132;-21.820;2023-04-15T13:58:05;2.67;;;0.10;;
72373;SDS011;60349;64.132;-21.820;2023-04-15T14:00:31;2.80;;;0.47;;
72373;SDS011;60349;64.132;-21.820;2023-04-15T14:02:57;1.48;;;0.10;;
72373;SDS011;60349;64.132;-21.820;2023-04-15T14:05:23;1.08;;;0.03;;
72373;SDS011;60349;64.132;-21.820;2023-04-15T14:07:50;0.65;;;0.00;;
72373;SDS011;60349;64.132;-21.820;2023-04-15T14:10:16;1.65;;;0.10;;
72373;SDS011;60349;64.132;-21.820;2023-04-15T14:12:42;2.67;;;0.10;;
72373;SDS011;60349;64.132;-21.820;2023-04-15T14:15:08;1.45;;;0.10;;
72373;SDS011;60349;64.132;-21.820;2023-04-15T14:17:35;1.98;;;0.25;;
72373;SDS011;60349;64.132;-21.820;2023-04-15T14:20:01;2.03;;;0.10;;
72373;SDS011;60349;64.132;-21.820;2023-04-15T14:22:27;0.98;;;0.00;;
72373;SDS011;60349;64.132;-21.820;2023-04-15T14:24:53;3.97;;;0.10;;
72373;SDS011;60349;64.132;-21.820;2023-04-15T14:27:20;1.85;;;0.10;;
72373;SDS011;60349;64.132;-21.820;2023-04-15T14:29:46;1.25;;;0.00;;
72373;SDS011;60349;64.132;-21.820;2023-04-15T14:32:12;3.45;;;0.10;;